Time;durP1;ratioP1;P1;durP2;ratioP2;P2;SDS_P1;SDS_P2;PMS_P1;PMS_P2;Temp;Humidity;BMP_temperature;BMP_pressure;BME280_temperature;BME280_humidity;BME280_pressure;Samples;Min_cycle;Max_cycle;Signal;HPM_P1;HPM_P2
2021/01/11 05:00:37;;;;;;;28.53;18.40;;;-3.60;99.90;;;;;;5881404;23;20755;-62
2021/01/11 05:03:05;;;;;;;29.63;20.27;;;-3.80;99.90;;;;;;4975974;28;20782;-62
2021/01/11 05:05:34;;;;;;;30.87;19.50;;;-3.90;99.90;;;;;;4976425;28;20459;-62
2021/01/11 05:08:01;;;;;;;34.50;18.90;;;-3.90;99.90;;;;;;4977125;28;20475;-63
2021/01/11 05:10:29;;;;;;;30.83;19.83;;;-3.90;99.90;;;;;;4976844;28;20454;-62
2021/01/11 05:12:57;;;;;;;32.20;19.20;;;-3.90;99.90;;;;;;4976727;28;20454;-64
2021/01/11 05:15:25;;;;;;;33.43;20.90;;;-4.00;99.90;;;;;;4976450;28;20455;-64
2021/01/11 05:17:52;;;;;;;28.97;19.27;;;-4.10;99.90;;;;;;4976669;28;20450;-63
2021/01/11 05:20:24;;;;;;;28.43;19.70;;;-4.10;99.90;;;;;;4976715;28;20454;-63
2021/01/11 05:22:53;;;;;;;30.93;18.97;;;-4.20;99.90;;;;;;4976627;28;20462;-63
2021/01/11 05:25:21;;;;;;;33.57;19.30;;;-4.20;99.90;;;;;;4976844;28;20462;-63
2021/01/11 05:28:03;;;;;;;30.67;18.63;;;-4.20;99.90;;;;;;4977902;28;20478;-64
2021/01/11 05:30:31;;;;;;;33.50;19.97;;;-4.30;99.90;;;;;;4977163;28;20485;-64
2021/01/11 05:32:59;;;;;;;27.77;18.17;;;-4.40;99.90;;;;;;4976704;28;20462;-63
2021/01/11 05:35:26;;;;;;;30.17;19.53;;;-4.40;99.90;;;;;;4976459;28;20459;-63
2021/01/11 05:37:54;;;;;;;31.97;20.60;;;-4.60;99.90;;;;;;4976970;28;20896;-63
2021/01/11 05:40:23;;;;;;;36.40;20.53;;;-4.70;99.90;;;;;;4982347;28;20494;-64
2021/01/11 05:42:51;;;;;;;34.70;19.47;;;-4.70;99.90;;;;;;4975902;28;20465;-64
2021/01/11 05:45:20;;;;;;;30.37;18.67;;;-4.60;99.90;;;;;;4975572;28;20478;-62
2021/01/11 05:48:03;;;;;;;31.50;19.50;;;-4.60;99.90;;;;;;4975166;28;20478;-62
2021/01/11 05:50:31;;;;;;;32.30;18.10;;;-4.60;99.90;;;;;;4975435;28;20449;-65
2021/01/11 05:52:57;;;;;;;29.57;19.30;;;-4.60;99.90;;;;;;4975459;28;20466;-63
2021/01/11 05:55:25;;;;;;;28.03;17.83;;;-4.50;99.90;;;;;;4974986;28;20466;-63
2021/01/11 05:57:56;;;;;;;31.17;19.90;;;-4.50;99.90;;;;;;4975092;28;20485;-62
2021/01/11 06:00:23;;;;;;;32.97;18.93;;;-4.40;99.90;;;;;;4974940;28;20463;-64
2021/01/11 06:02:50;;;;;;;29.93;18.07;;;-4.30;99.90;;;;;;4975184;28;20443;-63
2021/01/11 06:05:18;;;;;;;29.50;18.70;;;-4.30;99.90;;;;;;4975185;28;20463;-62
2021/01/11 06:07:45;;;;;;;29.40;19.67;;;-4.30;99.90;;;;;;4980831;28;20512;-63
2021/01/11 06:10:13;;;;;;;29.63;18.90;;;-4.30;99.90;;;;;;4975300;28;20483;-62
2021/01/11 06:12:40;;;;;;;29.23;19.53;;;-4.40;99.90;;;;;;4975073;28;20439;-62
2021/01/11 06:15:10;;;;;;;34.97;21.03;;;-4.30;99.90;;;;;;4975241;28;20458;-62
2021/01/11 06:17:37;;;;;;;34.57;20.43;;;-4.30;99.90;;;;;;4975121;28;20451;-63
2021/01/11 06:20:06;;;;;;;35.73;20.10;;;-4.40;99.90;;;;;;4974935;28;20455;-62
2021/01/11 06:23:14;;;;;;;35.97;21.57;;;-4.40;99.90;;;;;;4974500;28;20475;-62
2021/01/11 06:25:45;;;;;;;33.47;21.47;;;-4.40;99.90;;;;;;4974560;28;20439;-63
2021/01/11 06:28:12;;;;;;;32.20;20.20;;;-4.40;99.90;;;;;;4975192;28;20466;-63
2021/01/11 06:30:46;;;;;;;35.67;21.40;;;-4.40;99.90;;;;;;4974711;28;20478;-62
2021/01/11 06:33:14;;;;;;;32.40;20.57;;;-4.40;99.90;;;;;;4975270;28;20439;-62
2021/01/11 06:35:43;;;;;;;36.50;22.23;;;-4.40;99.90;;;;;;4974642;28;20454;-63
2021/01/11 06:38:17;;;;;;;35.07;20.93;;;-4.40;99.90;;;;;;4974530;28;20454;-62
2021/01/11 06:40:45;;;;;;;32.00;19.60;;;-4.40;99.90;;;;;;4974847;28;20479;-62
2021/01/11 06:43:12;;;;;;;37.13;21.40;;;-4.50;99.90;;;;;;4976295;28;20949;-62
2021/01/11 06:45:39;;;;;;;33.70;21.87;;;-4.60;99.90;;;;;;4974879;28;20462;-63
2021/01/11 06:48:06;;;;;;;35.67;20.30;;;-4.60;99.90;;;;;;4974772;28;20482;-62
2021/01/11 06:50:33;;;;;;;30.33;19.43;;;-4.50;99.90;;;;;;4974219;28;20896;-62
2021/01/11 06:53:01;;;;;;;30.67;18.63;;;-4.50;99.90;;;;;;4974447;28;20461;-63
2021/01/11 06:55:28;;;;;;;32.77;21.20;;;-4.50;99.90;;;;;;4975739;28;20957;-62
2021/01/11 06:57:59;;;;;;;30.63;20.83;;;-4.50;99.90;;;;;;4974956;28;20455;-62
2021/01/11 07:00:33;;;;;;;32.83;20.60;;;-4.60;99.90;;;;;;4974766;28;20485;-62
2021/01/11 07:03:00;;;;;;;30.73;19.20;;;-4.70;99.90;;;;;;4975875;28;20442;-62
2021/01/11 07:05:42;;;;;;;35.33;21.63;;;-4.80;99.90;;;;;;4974684;28;20454;-63
2021/01/11 07:08:12;;;;;;;35.50;20.00;;;-4.80;99.90;;;;;;4974740;28;20510;-62
2021/01/11 07:10:40;;;;;;;35.30;20.30;;;-4.80;99.90;;;;;;4977706;28;20479;-63
2021/01/11 07:13:26;;;;;;;31.23;19.50;;;-4.80;99.90;;;;;;4978551;28;20459;-62
2021/01/11 07:16:13;;;;;;;33.67;19.53;;;-4.80;99.90;;;;;;4982417;28;20574;-62
2021/01/11 07:18:53;;;;;;;27.60;18.00;;;-4.80;99.90;;;;;;4983538;28;20431;-62
2021/01/11 07:21:22;;;;;;;32.97;19.17;;;-4.80;99.90;;;;;;4997301;28;20529;-63
2021/01/11 07:23:49;;;;;;;29.93;17.80;;;-4.70;99.90;;;;;;5001029;28;20427;-62
2021/01/11 07:26:17;;;;;;;31.43;18.77;;;-4.70;99.90;;;;;;4995265;28;20454;-61
2021/01/11 07:28:56;;;;;;;53.95;34.28;;;-4.60;99.90;;;;;;4978720;28;20457;-61
2021/01/11 07:31:24;;;;;;;52.93;28.70;;;-4.20;99.90;;;;;;4981290;28;20246;-60
2021/01/11 07:34:01;;;;;;;41.23;23.70;;;-3.60;99.90;;;;;;4979063;28;20455;-61
2021/01/11 07:36:30;;;;;;;40.30;22.70;;;-3.50;99.90;;;;;;4980228;28;20443;-59
2021/01/11 07:39:16;;;;;;;33.30;21.40;;;-3.20;99.90;;;;;;4978074;28;20459;-62
2021/01/11 07:41:44;;;;;;;35.43;20.57;;;-3.00;99.90;;;;;;4977979;28;20482;-62
2021/01/11 07:44:31;;;;;;;31.27;20.50;;;-3.00;99.90;;;;;;4978027;28;20459;-60
2021/01/11 07:47:00;;;;;;;31.50;19.17;;;-3.10;99.90;;;;;;4978675;28;20522;-61
2021/01/11 07:49:28;;;;;;;35.80;19.20;;;-2.80;99.90;;;;;;4980764;28;20478;-63
2021/01/11 07:52:02;;;;;;;28.87;20.20;;;-2.40;99.90;;;;;;4988719;28;20506;-63
2021/01/11 07:54:29;;;;;;;30.50;18.57;;;-1.80;99.90;;;;;;4995576;28;20438;-61
2021/01/11 07:56:55;;;;;;;26.10;17.80;;;-1.30;99.90;;;;;;4987223;28;20451;-61
2021/01/11 07:59:23;;;;;;;26.20;17.93;;;-0.70;99.90;;;;;;4978935;28;20486;-61
2021/01/11 08:01:50;;;;;;;29.13;17.27;;;-0.20;99.90;;;;;;4995071;28;20489;-62
2021/01/11 08:04:19;;;;;;;25.93;18.70;;;0.40;99.90;;;;;;4981618;28;20823;-60
2021/01/11 08:06:54;;;;;;;23.07;16.93;;;1.10;99.90;;;;;;4978610;28;20470;-61
2021/01/11 08:12:15;;;;;;;26.07;18.00;;;1.80;99.90;;;;;;5593588;23;20505;-62
2021/01/11 08:14:41;;;;;;;28.73;17.90;;;2.40;99.90;;;;;;4976300;28;20913;-61
2021/01/11 08:17:15;;;;;;;25.63;18.43;;;3.00;99.90;;;;;;4977020;28;20446;-61
2021/01/11 08:19:41;;;;;;;23.93;17.90;;;3.30;99.90;;;;;;4979172;28;20450;-61
2021/01/11 08:22:09;;;;;;;26.57;19.13;;;3.70;99.90;;;;;;4978910;28;20530;-61
2021/01/11 08:24:36;;;;;;;24.30;18.37;;;3.80;99.90;;;;;;4977622;28;20549;-60
2021/01/11 08:27:06;;;;;;;26.70;19.57;;;3.70;99.90;;;;;;4978342;28;20489;-61
2021/01/11 08:29:36;;;;;;;24.17;17.07;;;4.10;99.90;;;;;;4976988;28;20470;-61
2021/01/11 08:32:04;;;;;;;23.17;17.03;;;4.60;99.90;;;;;;4975704;28;21015;-63
2021/01/11 08:34:31;;;;;;;22.23;17.30;;;4.70;99.90;;;;;;4976302;28;20469;-62
2021/01/11 08:36:59;;;;;;;23.40;19.20;;;5.40;99.90;;;;;;4976851;28;20462;-62
2021/01/11 08:39:25;;;;;;;24.60;18.83;;;6.00;99.90;;;;;;4975979;28;20513;-62
2021/01/11 08:41:54;;;;;;;21.03;16.93;;;6.10;99.80;;;;;;4975758;28;20502;-61
2021/01/11 08:44:31;;;;;;;23.00;17.90;;;6.50;97.50;;;;;;4976086;28;20582;-63
2021/01/11 08:47:03;;;;;;;19.93;16.60;;;6.80;96.00;;;;;;4976249;28;20465;-62
2021/01/11 08:49:32;;;;;;;26.30;20.60;;;6.60;95.10;;;;;;4976498;28;20973;-61
2021/01/11 08:52:08;;;;;;;22.40;18.10;;;6.80;94.60;;;;;;4975816;28;20483;-62
2021/01/11 08:54:35;;;;;;;24.47;19.20;;;6.60;94.20;;;;;;4976026;28;20458;-61
2021/01/11 08:57:09;;;;;;;23.23;18.73;;;6.70;93.90;;;;;;4976173;28;20451;-61
2021/01/11 08:59:36;;;;;;;24.10;19.40;;;7.00;93.60;;;;;;4975581;28;20941;-61
2021/01/11 09:02:02;;;;;;;23.53;19.03;;;7.20;92.60;;;;;;4975613;28;20486;-63
2021/01/11 09:04:29;;;;;;;22.10;17.40;;;7.30;92.60;;;;;;4975698;28;20491;-62
2021/01/11 09:07:00;;;;;;;25.53;18.87;;;7.80;91.50;;;;;;4976521;28;20494;-62
2021/01/11 09:09:28;;;;;;;26.10;18.93;;;7.80;91.00;;;;;;4975838;28;20449;-61
2021/01/11 09:12:02;;;;;;;23.30;18.43;;;8.20;89.60;;;;;;4975278;28;20490;-60
2021/01/11 09:14:28;;;;;;;22.10;18.40;;;8.20;89.10;;;;;;4975108;28;21011;-61
2021/01/11 09:16:59;;;;;;;23.30;19.13;;;7.90;87.90;;;;;;4975492;28;20451;-61
2021/01/11 09:19:26;;;;;;;27.13;19.30;;;7.50;88.10;;;;;;4975428;28;20461;-63
2021/01/11 09:22:01;;;;;;;25.40;20.40;;;6.80;90.30;;;;;;4975073;28;20989;-62
2021/01/11 09:24:28;;;;;;;22.87;18.57;;;5.70;92.30;;;;;;4974998;28;20945;-61
2021/01/11 09:26:54;;;;;;;23.63;18.77;;;4.50;94.30;;;;;;4975562;28;21000;-62
2021/01/11 09:29:21;;;;;;;26.17;18.73;;;3.60;98.30;;;;;;4979630;28;20455;-62
2021/01/11 09:31:48;;;;;;;26.43;19.10;;;2.70;99.90;;;;;;4975202;28;20529;-61
2021/01/11 09:34:15;;;;;;;24.47;17.90;;;2.00;99.90;;;;;;4976064;28;20459;-61
2021/01/11 09:36:41;;;;;;;24.10;17.90;;;1.20;99.90;;;;;;4975588;28;20470;-62
2021/01/11 09:39:10;;;;;;;28.20;19.73;;;0.90;99.90;;;;;;4975190;28;20458;-61
2021/01/11 09:41:40;;;;;;;26.53;18.33;;;0.60;99.90;;;;;;4974956;28;20475;-62
2021/01/11 09:44:06;;;;;;;32.30;18.70;;;0.40;99.90;;;;;;4974676;28;20477;-62
2021/01/11 09:46:40;;;;;;;25.57;18.13;;;0.20;99.90;;;;;;4974872;28;20506;-63
2021/01/11 09:49:06;;;;;;;30.17;18.20;;;0.20;99.90;;;;;;4974660;28;20937;-62
2021/01/11 09:51:32;;;;;;;26.20;18.43;;;0.20;99.90;;;;;;4974975;28;20479;-61
2021/01/11 09:53:59;;;;;;;23.50;18.00;;;0.30;99.90;;;;;;4974814;28;20458;-61
2021/01/11 09:56:26;;;;;;;23.70;17.13;;;0.20;99.90;;;;;;4974809;28;20451;-62
2021/01/11 09:58:52;;;;;;;27.30;17.47;;;0.20;99.90;;;;;;4974623;28;20813;-63
2021/01/11 10:01:19;;;;;;;28.07;19.23;;;0.20;99.90;;;;;;4974766;28;20478;-61
2021/01/11 10:03:46;;;;;;;26.43;17.63;;;0.30;99.90;;;;;;4974798;28;20584;-61
2021/01/11 10:06:13;;;;;;;21.27;17.50;;;0.40;99.90;;;;;;4975145;28;20459;-61
2021/01/11 10:08:39;;;;;;;24.23;17.10;;;0.70;99.90;;;;;;4976075;28;20478;-61
2021/01/11 10:11:12;;;;;;;22.17;16.23;;;1.40;99.90;;;;;;4975278;28;20524;-60
2021/01/11 10:13:39;;;;;;;21.10;16.10;;;2.10;99.90;;;;;;4974552;28;20984;-61
2021/01/11 10:16:06;;;;;;;23.63;17.57;;;2.40;99.90;;;;;;4974592;28;21012;-61
2021/01/11 10:18:32;;;;;;;26.00;18.10;;;2.30;99.90;;;;;;4975024;28;20914;-62
2021/01/11 10:20:58;;;;;;;28.50;17.40;;;2.10;99.90;;;;;;4975060;28;20512;-61
2021/01/11 10:23:24;;;;;;;24.93;17.23;;;1.80;99.90;;;;;;4974613;28;20454;-63
2021/01/11 10:25:50;;;;;;;26.73;19.33;;;1.50;99.90;;;;;;4974445;28;20459;-62
2021/01/11 10:28:17;;;;;;;24.33;16.83;;;1.40;99.90;;;;;;4974501;28;20486;-60
2021/01/11 10:30:44;;;;;;;25.47;18.00;;;1.20;99.90;;;;;;4974554;28;20454;-62
2021/01/11 10:33:10;;;;;;;23.03;15.30;;;1.10;99.90;;;;;;4974369;28;20857;-62
2021/01/11 10:35:36;;;;;;;23.73;17.57;;;0.80;99.90;;;;;;4974426;28;20465;-61
2021/01/11 10:38:02;;;;;;;22.80;15.43;;;0.70;99.90;;;;;;4974954;28;20451;-60
2021/01/11 10:40:28;;;;;;;21.97;16.17;;;0.70;99.90;;;;;;4974000;28;20447;-60
2021/01/11 10:42:55;;;;;;;24.37;16.40;;;2.00;99.90;;;;;;4974444;28;20502;-60
2021/01/11 10:45:21;;;;;;;23.50;17.07;;;3.60;99.90;;;;;;4977065;28;20458;-61
2021/01/11 10:47:50;;;;;;;19.97;15.70;;;4.70;99.90;;;;;;4977575;28;20992;-63
2021/01/11 10:50:16;;;;;;;20.50;16.27;;;5.90;99.90;;;;;;4978068;28;20458;-60
2021/01/11 10:52:42;;;;;;;20.13;16.27;;;6.80;98.40;;;;;;4978028;28;20485;-61
2021/01/11 10:55:10;;;;;;;21.33;17.37;;;7.50;95.00;;;;;;4977849;28;20462;-62
2021/01/11 10:57:36;;;;;;;19.20;16.03;;;7.40;92.20;;;;;;4978092;28;20541;-61
2021/01/11 11:00:08;;;;;;;22.87;17.90;;;6.70;93.70;;;;;;4978540;28;20454;-60
2021/01/11 11:02:36;;;;;;;21.60;17.13;;;6.30;92.90;;;;;;4977527;28;21096;-62
2021/01/11 11:05:04;;;;;;;21.73;17.37;;;5.70;95.30;;;;;;4977418;28;20980;-60
2021/01/11 11:07:33;;;;;;;20.30;14.83;;;5.20;95.30;;;;;;4977694;28;20545;-62
2021/01/11 11:10:00;;;;;;;20.87;16.30;;;4.50;98.70;;;;;;4977898;28;20977;-61
2021/01/11 11:12:27;;;;;;;25.03;17.10;;;4.10;99.20;;;;;;4977717;28;20536;-61
2021/01/11 11:14:54;;;;;;;20.40;16.80;;;3.90;99.80;;;;;;4979610;28;20450;-60
2021/01/11 11:17:20;;;;;;;24.43;16.13;;;3.50;99.90;;;;;;4980822;28;20446;-60
2021/01/11 11:19:46;;;;;;;25.60;17.47;;;3.30;99.90;;;;;;4981226;28;20459;-61
2021/01/11 11:22:13;;;;;;;23.07;16.60;;;3.00;99.90;;;;;;4981337;28;20479;-60
2021/01/11 11:24:39;;;;;;;26.23;17.30;;;2.70;99.90;;;;;;4983244;28;20455;-61
2021/01/11 11:27:06;;;;;;;21.53;16.67;;;2.40;99.90;;;;;;4982421;28;20482;-61
2021/01/11 11:29:32;;;;;;;22.73;17.93;;;2.30;99.90;;;;;;4980790;28;20459;-60
2021/01/11 11:31:58;;;;;;;25.87;18.50;;;2.30;99.90;;;;;;4979262;28;20837;-62
2021/01/11 11:34:24;;;;;;;25.50;17.83;;;2.10;99.90;;;;;;4977148;28;20458;-61
2021/01/11 11:36:54;;;;;;;25.27;17.80;;;2.20;99.90;;;;;;4977156;28;20455;-61
2021/01/11 11:39:21;;;;;;;23.00;16.50;;;2.10;99.90;;;;;;4977090;28;20434;-61
2021/01/11 11:41:47;;;;;;;23.97;17.37;;;1.90;99.90;;;;;;4976973;28;20481;-61
2021/01/11 11:44:14;;;;;;;27.97;17.33;;;1.80;99.90;;;;;;4977099;28;20458;-62
2021/01/11 11:46:40;;;;;;;22.00;16.20;;;1.90;99.90;;;;;;4976928;28;20459;-60
2021/01/11 11:49:06;;;;;;;25.23;16.20;;;1.90;99.90;;;;;;4980132;28;20486;-61
2021/01/11 11:51:32;;;;;;;24.17;17.63;;;1.90;99.90;;;;;;4979711;28;20529;-63
2021/01/11 11:53:58;;;;;;;24.63;16.87;;;1.90;99.90;;;;;;4977290;28;20575;-61
2021/01/11 11:56:25;;;;;;;21.40;15.80;;;1.80;99.90;;;;;;4977678;28;20458;-63
2021/01/11 11:58:52;;;;;;;21.60;15.50;;;1.80;99.90;;;;;;4978268;28;20457;-63
2021/01/11 12:01:18;;;;;;;29.67;18.83;;;1.80;99.90;;;;;;4977762;28;20486;-62
2021/01/11 12:03:44;;;;;;;29.20;16.70;;;1.80;99.90;;;;;;4977753;28;20945;-61
2021/01/11 12:06:10;;;;;;;22.90;16.00;;;1.80;99.90;;;;;;4976812;28;20828;-61
2021/01/11 12:08:36;;;;;;;25.33;16.67;;;1.70;99.90;;;;;;4976516;28;20485;-60
2021/01/11 12:11:03;;;;;;;24.00;16.20;;;1.90;99.90;;;;;;4976737;28;20463;-61
2021/01/11 12:13:30;;;;;;;20.33;16.23;;;1.90;99.90;;;;;;4976181;28;20462;-61
2021/01/11 12:15:56;;;;;;;21.33;15.10;;;1.80;99.90;;;;;;4977043;28;20952;-60
2021/01/11 12:18:22;;;;;;;22.07;15.73;;;1.90;99.90;;;;;;4977834;28;20455;-62
2021/01/11 12:20:48;;;;;;;23.10;16.00;;;1.80;99.90;;;;;;4976356;28;20459;-62
2021/01/11 12:23:15;;;;;;;29.90;16.87;;;1.80;99.90;;;;;;4976930;28;20931;-61
2021/01/11 12:25:41;;;;;;;36.83;16.00;;;1.80;99.90;;;;;;4976859;28;20490;-62
2021/01/11 12:28:08;;;;;;;23.33;16.83;;;1.90;99.90;;;;;;4976722;28;20481;-62
2021/01/11 12:30:35;;;;;;;22.73;15.80;;;2.00;99.90;;;;;;4976217;28;20509;-61
2021/01/11 12:33:01;;;;;;;20.97;15.73;;;2.00;99.90;;;;;;4976324;28;20482;-61
2021/01/11 12:35:27;;;;;;;24.83;15.80;;;2.00;99.90;;;;;;4977914;28;20826;-61
2021/01/11 12:37:53;;;;;;;23.90;16.90;;;1.80;99.90;;;;;;4976157;28;20454;-62
2021/01/11 12:40:20;;;;;;;26.40;16.50;;;1.80;99.90;;;;;;4975881;28;20877;-61
2021/01/11 12:42:46;;;;;;;22.70;15.97;;;1.80;99.90;;;;;;4975383;28;20937;-61
2021/01/11 12:45:13;;;;;;;25.73;17.10;;;1.80;99.90;;;;;;4975848;28;20825;-61
2021/01/11 12:47:40;;;;;;;25.00;16.73;;;1.90;99.90;;;;;;4975777;28;20889;-61
2021/01/11 12:50:07;;;;;;;26.80;16.60;;;1.90;99.90;;;;;;4975643;28;20462;-61
2021/01/11 12:52:34;;;;;;;22.27;16.90;;;1.90;99.90;;;;;;4975587;28;20478;-61
2021/01/11 12:55:00;;;;;;;20.57;15.00;;;1.90;99.90;;;;;;4975595;28;20815;-61
2021/01/11 12:57:26;;;;;;;24.70;17.57;;;2.00;99.90;;;;;;4975671;28;20461;-61
2021/01/11 12:59:53;;;;;;;23.10;16.30;;;2.00;99.90;;;;;;4975528;28;21020;-62
2021/01/11 13:02:19;;;;;;;21.93;15.73;;;2.00;99.90;;;;;;4975425;28;20478;-61
2021/01/11 13:04:49;;;;;;;24.80;16.87;;;2.00;99.90;;;;;;4975324;28;20873;-61
2021/01/11 13:07:15;;;;;;;24.60;16.03;;;1.90;99.90;;;;;;4974772;28;20467;-61
2021/01/11 13:09:42;;;;;;;20.87;15.57;;;1.70;99.90;;;;;;4975708;28;20455;-62
2021/01/11 13:12:08;;;;;;;23.67;16.20;;;1.80;99.90;;;;;;4975515;28;20482;-61
2021/01/11 13:14:34;;;;;;;23.43;16.23;;;1.90;99.90;;;;;;4975441;28;20454;-60
2021/01/11 13:17:01;;;;;;;26.47;16.00;;;1.80;99.90;;;;;;4975788;28;20458;-61
2021/01/11 13:19:27;;;;;;;28.90;17.17;;;1.80;99.90;;;;;;4975361;28;20495;-61
2021/01/11 13:21:54;;;;;;;20.87;15.07;;;1.80;99.90;;;;;;4974961;28;20993;-62
2021/01/11 13:24:20;;;;;;;20.53;15.43;;;1.80;99.90;;;;;;4975965;28;20459;-62
2021/01/11 13:26:47;;;;;;;21.27;15.20;;;1.70;99.90;;;;;;4975166;28;20465;-61
2021/01/11 13:29:14;;;;;;;26.30;16.53;;;1.70;99.90;;;;;;4975316;28;20478;-63
2021/01/11 13:31:45;;;;;;;25.63;16.23;;;1.70;99.90;;;;;;4974813;28;21001;-62
2021/01/11 13:34:12;;;;;;;19.33;13.80;;;1.80;99.90;;;;;;4975232;28;20458;-62
2021/01/11 13:36:38;;;;;;;19.77;14.67;;;1.90;99.90;;;;;;4974637;28;20466;-62
2021/01/11 13:39:05;;;;;;;23.57;16.83;;;2.00;99.90;;;;;;4975024;28;20457;-60
2021/01/11 13:41:32;;;;;;;26.53;15.37;;;2.00;99.90;;;;;;4975038;28;20478;-62
2021/01/11 13:43:59;;;;;;;19.43;15.50;;;2.00;99.90;;;;;;4974984;28;20465;-61
2021/01/11 13:46:29;;;;;;;25.70;15.20;;;2.10;99.90;;;;;;4974608;28;20950;-61
2021/01/11 13:48:55;;;;;;;22.37;16.00;;;2.10;99.90;;;;;;4974924;28;20479;-62
2021/01/11 13:51:21;;;;;;;24.50;15.80;;;2.10;99.90;;;;;;4974843;28;20479;-63
2021/01/11 13:53:47;;;;;;;25.30;14.30;;;1.90;99.90;;;;;;4974879;28;20462;-62
2021/01/11 13:56:21;;;;;;;22.93;14.57;;;2.00;99.90;;;;;;4974527;28;20945;-63
2021/01/11 13:58:47;;;;;;;23.17;14.90;;;2.00;99.90;;;;;;4974462;28;20467;-61
2021/01/11 14:01:14;;;;;;;23.67;14.07;;;2.00;99.90;;;;;;4975361;28;20810;-61
2021/01/11 14:03:40;;;;;;;19.00;14.43;;;2.00;99.90;;;;;;4975081;28;20459;-61
2021/01/11 14:06:06;;;;;;;19.00;14.20;;;2.00;99.90;;;;;;4974327;28;20946;-62
2021/01/11 14:08:32;;;;;;;21.20;14.37;;;2.00;99.90;;;;;;4974374;28;21064;-61
2021/01/11 14:10:59;;;;;;;25.27;14.70;;;1.80;99.90;;;;;;4974597;28;20465;-61
2021/01/11 14:13:26;;;;;;;22.77;15.13;;;1.80;99.90;;;;;;4979118;28;20466;-62
2021/01/11 14:15:52;;;;;;;20.00;14.83;;;1.80;99.90;;;;;;4975783;28;20819;-63
2021/01/11 14:18:18;;;;;;;19.27;13.80;;;1.80;99.90;;;;;;4975703;28;20815;-62
2021/01/11 14:20:44;;;;;;;18.63;12.93;;;1.90;99.90;;;;;;4978714;28;20837;-62
2021/01/11 14:23:11;;;;;;;18.77;13.10;;;1.90;99.90;;;;;;4978458;28;20482;-62
2021/01/11 14:25:37;;;;;;;18.10;13.63;;;2.00;99.90;;;;;;4978633;28;20458;-62
2021/01/11 14:28:04;;;;;;;20.27;13.80;;;1.90;99.90;;;;;;4978595;28;20474;-62
2021/01/11 14:30:33;;;;;;;19.63;13.80;;;1.90;99.90;;;;;;4978285;28;20458;-62
2021/01/11 14:32:59;;;;;;;18.20;12.73;;;1.90;99.90;;;;;;4978581;28;20482;-61
2021/01/11 14:35:26;;;;;;;26.57;14.50;;;1.90;99.90;;;;;;4978297;28;20964;-62
2021/01/11 14:37:52;;;;;;;17.20;13.40;;;1.90;99.90;;;;;;4978508;28;20454;-61
2021/01/11 14:40:18;;;;;;;18.53;13.30;;;1.90;99.90;;;;;;4978703;28;20462;-62
2021/01/11 14:42:44;;;;;;;17.00;12.73;;;1.90;99.90;;;;;;4978575;28;20477;-62
2021/01/11 14:45:11;;;;;;;17.03;13.73;;;2.00;99.90;;;;;;4978278;28;20458;-62
2021/01/11 14:47:38;;;;;;;16.10;11.80;;;2.10;99.90;;;;;;4978237;28;20481;-62
2021/01/11 14:50:05;;;;;;;17.00;13.63;;;2.20;99.90;;;;;;4978070;28;20822;-61
2021/01/11 14:52:31;;;;;;;23.50;12.23;;;2.20;99.90;;;;;;4978242;28;20549;-63
2021/01/11 14:54:57;;;;;;;15.90;12.90;;;2.40;99.90;;;;;;4978208;28;20454;-63
2021/01/11 14:57:24;;;;;;;17.40;14.30;;;2.50;99.90;;;;;;4978287;28;20446;-63
2021/01/11 14:59:50;;;;;;;14.27;12.00;;;2.40;99.90;;;;;;4978358;28;20459;-62
2021/01/11 15:02:16;;;;;;;16.80;12.90;;;2.40;99.90;;;;;;4978086;28;20961;-62
2021/01/11 15:04:43;;;;;;;17.03;13.30;;;2.30;99.90;;;;;;4978018;28;20803;-62
2021/01/11 15:07:09;;;;;;;19.13;11.80;;;2.30;99.90;;;;;;4977722;28;20454;-63
2021/01/11 15:09:35;;;;;;;19.47;12.63;;;2.00;99.90;;;;;;4977793;28;20509;-62
2021/01/11 15:12:02;;;;;;;17.90;12.70;;;1.90;99.90;;;;;;4977875;28;20490;-63
2021/01/11 15:14:28;;;;;;;19.23;13.17;;;1.80;99.90;;;;;;4977646;28;20462;-62
2021/01/11 15:16:55;;;;;;;19.43;12.70;;;1.80;99.90;;;;;;4977446;28;20454;-62
2021/01/11 15:19:21;;;;;;;18.57;13.47;;;1.70;99.90;;;;;;4977653;28;20537;-61
2021/01/11 15:21:48;;;;;;;24.30;13.70;;;1.70;99.90;;;;;;4977554;28;20478;-61
2021/01/11 15:24:15;;;;;;;15.90;13.00;;;1.60;99.90;;;;;;4977426;28;20803;-62
2021/01/11 15:26:41;;;;;;;19.10;13.00;;;1.50;99.90;;;;;;4979009;28;20463;-63
2021/01/11 15:29:07;;;;;;;16.37;12.30;;;1.50;99.90;;;;;;4977484;28;20534;-61
2021/01/11 15:31:34;;;;;;;22.03;13.57;;;1.40;99.90;;;;;;4977897;28;20485;-62
2021/01/11 15:34:01;;;;;;;19.20;13.13;;;1.40;99.90;;;;;;4983085;28;20458;-61
2021/01/11 15:36:28;;;;;;;21.30;13.53;;;1.30;99.90;;;;;;4982648;28;20458;-61
2021/01/11 15:38:56;;;;;;;18.20;13.40;;;1.30;99.90;;;;;;4979111;28;20486;-62
2021/01/11 15:41:22;;;;;;;16.47;11.93;;;1.20;99.90;;;;;;4979537;28;20478;-61
2021/01/11 15:43:49;;;;;;;18.37;13.13;;;1.10;99.90;;;;;;4977099;28;20462;-60
2021/01/11 15:46:19;;;;;;;15.83;12.40;;;1.10;99.90;;;;;;4977157;28;20510;-60
2021/01/11 15:48:46;;;;;;;21.17;13.80;;;1.00;99.90;;;;;;4976483;28;21005;-62
2021/01/11 15:51:12;;;;;;;18.13;13.17;;;1.00;99.90;;;;;;4976480;28;20969;-61
2021/01/11 15:53:38;;;;;;;19.37;13.50;;;0.90;99.90;;;;;;4977588;28;20455;-60
2021/01/11 15:56:06;;;;;;;18.57;14.03;;;0.80;99.90;;;;;;4977679;28;20837;-61
2021/01/11 15:58:32;;;;;;;16.50;13.00;;;0.70;99.90;;;;;;4977591;28;20455;-61
2021/01/11 16:00:58;;;;;;;23.97;17.47;;;0.80;99.90;;;;;;4977281;28;20466;-61
2021/01/11 16:03:24;;;;;;;22.60;15.17;;;0.70;99.90;;;;;;4976663;28;20475;-61
2021/01/11 16:05:58;;;;;;;19.80;13.80;;;0.70;99.90;;;;;;4976572;28;20462;-61
2021/01/11 16:08:24;;;;;;;18.60;13.37;;;0.70;99.90;;;;;;4977332;28;20463;-64
2021/01/11 16:10:50;;;;;;;19.70;14.00;;;0.60;99.90;;;;;;4977435;28;20866;-63
2021/01/11 16:13:17;;;;;;;19.37;14.50;;;0.60;99.90;;;;;;4976181;28;20487;-63
2021/01/11 16:15:43;;;;;;;19.40;13.60;;;0.60;99.90;;;;;;4976153;28;20454;-61
2021/01/11 16:18:09;;;;;;;27.27;16.97;;;0.60;99.90;;;;;;4977802;28;20447;-61
2021/01/11 16:20:36;;;;;;;26.87;17.87;;;0.60;99.90;;;;;;4976718;28;20459;-63
2021/01/11 16:23:02;;;;;;;20.13;15.13;;;0.70;99.90;;;;;;4977079;28;20479;-62
2021/01/11 16:25:28;;;;;;;26.30;21.03;;;0.60;99.90;;;;;;4976324;28;20972;-61
2021/01/11 16:27:54;;;;;;;20.40;15.03;;;0.60;99.90;;;;;;4976441;28;20478;-61
2021/01/11 16:30:22;;;;;;;40.67;23.23;;;0.60;99.90;;;;;;4976344;28;20865;-62
2021/01/11 16:32:48;;;;;;;26.20;16.53;;;0.60;99.90;;;;;;4977208;28;20474;-61
2021/01/11 16:35:14;;;;;;;31.67;20.90;;;0.60;99.90;;;;;;4977074;28;20462;-61
2021/01/11 16:37:41;;;;;;;40.40;24.60;;;0.70;99.90;;;;;;4979979;28;20461;-63
2021/01/11 16:40:09;;;;;;;27.70;16.43;;;0.60;99.90;;;;;;4980724;28;20458;-61
2021/01/11 16:42:35;;;;;;;25.90;17.20;;;0.60;99.90;;;;;;4979312;28;20506;-61
2021/01/11 16:45:01;;;;;;;26.20;16.50;;;0.70;99.90;;;;;;4984431;28;20922;-62
2021/01/11 16:47:29;;;;;;;24.20;16.13;;;0.70;99.90;;;;;;4978136;28;20518;-62
2021/01/11 16:49:55;;;;;;;33.20;21.17;;;0.70;99.90;;;;;;4976091;28;20494;-63
2021/01/11 16:52:22;;;;;;;70.17;47.17;;;0.80;99.90;;;;;;4975774;28;20482;-61
2021/01/11 16:54:48;;;;;;;37.33;25.40;;;0.70;99.90;;;;;;4975781;28;20454;-61
2021/01/11 16:57:14;;;;;;;31.70;22.80;;;0.70;99.90;;;;;;4975984;28;20459;-61
2021/01/11 16:59:40;;;;;;;37.70;25.47;;;0.70;99.90;;;;;;4976340;28;20466;-61
2021/01/11 17:02:07;;;;;;;35.50;24.07;;;0.70;99.90;;;;;;4976121;28;20636;-60
2021/01/11 17:04:34;;;;;;;80.50;44.43;;;0.70;99.90;;;;;;4975787;28;20454;-63
2021/01/11 17:07:01;;;;;;;70.33;37.10;;;0.80;99.90;;;;;;4975434;28;20946;-61
2021/01/11 17:09:27;;;;;;;35.67;21.37;;;0.80;99.90;;;;;;4975141;28;21021;-60
2021/01/11 17:11:57;;;;;;;29.83;19.80;;;0.80;99.90;;;;;;4975532;28;20537;-61
2021/01/11 17:14:23;;;;;;;30.03;18.40;;;0.80;99.90;;;;;;4975891;28;20530;-62
2021/01/11 17:16:50;;;;;;;28.00;15.73;;;0.90;99.90;;;;;;4975301;28;20466;-60
2021/01/11 17:19:16;;;;;;;26.43;14.70;;;1.00;99.90;;;;;;4975332;28;20451;-61
2021/01/11 17:21:43;;;;;;;20.53;14.23;;;1.00;99.90;;;;;;4974980;28;20483;-62
2021/01/11 17:24:10;;;;;;;19.50;14.40;;;1.10;99.90;;;;;;4975464;28;20457;-63
2021/01/11 17:26:36;;;;;;;21.17;14.03;;;1.10;99.90;;;;;;4978215;28;20465;-61
2021/01/11 17:29:04;;;;;;;22.67;15.60;;;1.10;99.90;;;;;;4978354;28;20482;-61
2021/01/11 17:31:30;;;;;;;21.43;14.33;;;1.10;99.90;;;;;;4979372;28;20478;-62
2021/01/11 17:33:57;;;;;;;18.00;13.30;;;1.10;99.90;;;;;;4976096;28;20579;-62
2021/01/11 17:36:25;;;;;;;21.80;14.10;;;1.10;99.90;;;;;;4976248;28;20497;-62
2021/01/11 17:38:53;;;;;;;28.70;14.13;;;1.20;99.90;;;;;;4975637;28;20458;-60
2021/01/11 17:41:22;;;;;;;23.50;15.23;;;1.20;99.90;;;;;;4974851;28;20458;-60